Time;durP1;ratioP1;P1;durP2;ratioP2;P2;SDS_P1;SDS_P2;PMS_P1;PMS_P2;Temp;Humidity;BMP_temperature;BMP_pressure;BME280_temperature;BME280_humidity;BME280_pressure;Samples;Min_cycle;Max_cycle;Signal;HPM_P1;HPM_P2
2021/06/30 00:01:57;;;;;;;0.98;0.80;;;;;;;17.19;52.95;100680.81;8081279;27;20630;-71
2021/06/30 00:06:00;;;;;;;1.42;0.80;;;;;;;17.19;53.14;100675.50;8083500;27;20614;-72
2021/06/30 00:10:04;;;;;;;1.60;1.10;;;;;;;17.17;53.24;100667.69;8080427;27;21398;-73
2021/06/30 00:14:06;;;;;;;1.20;0.90;;;;;;;17.20;53.37;100655.94;8034102;28;20620;-73
2021/06/30 00:18:08;;;;;;;1.40;1.10;;;;;;;17.19;53.01;100641.84;8050098;28;20614;-73
2021/06/30 00:22:10;;;;;;;1.42;0.90;;;;;;;17.17;53.47;100642.97;8111403;27;21104;-72
2021/06/30 00:26:12;;;;;;;1.55;0.90;;;;;;;17.17;52.96;100648.28;8081159;27;20609;-73
2021/06/30 00:30:14;;;;;;;2.25;1.13;;;;;;;17.10;53.30;100648.03;8081965;27;20629;-73
2021/06/30 00:34:16;;;;;;;1.70;0.98;;;;;;;17.11;53.32;100659.50;8114412;27;21449;-73
2021/06/30 00:38:17;;;;;;;4.65;1.60;;;;;;;17.05;53.40;100661.75;8097981;27;20621;-72
2021/06/30 00:42:19;;;;;;;2.35;1.17;;;;;;;17.08;53.75;100664.09;8114248;27;20616;-73
2021/06/30 00:46:31;;;;;;;2.17;1.77;;;;;;;17.08;53.59;100655.31;8114511;27;20627;-72
2021/06/30 00:50:33;;;;;;;2.22;1.63;;;;;;;17.06;53.76;100647.50;8106813;27;20555;-72
2021/06/30 00:54:36;;;;;;;2.40;1.90;;;;;;;17.06;53.67;100650.16;8109796;27;20558;-72
2021/06/30 00:58:40;;;;;;;5.03;2.10;;;;;;;17.03;53.80;100637.16;8110716;27;20536;-72
2021/06/30 01:02:42;;;;;;;2.97;2.13;;;;;;;17.08;54.04;100652.66;8104377;27;20939;-72
2021/06/30 01:06:45;;;;;;;5.65;2.00;;;;;;;17.07;54.00;100645.69;8111906;27;21058;-72
2021/06/30 01:10:48;;;;;;;8.40;2.17;;;;;;;17.09;54.12;100638.41;8107511;27;20874;-72
2021/06/30 01:14:51;;;;;;;2.40;1.80;;;;;;;17.06;54.14;100625.44;8114118;27;21077;-72
2021/06/30 01:18:54;;;;;;;2.60;1.52;;;;;;;17.00;54.12;100618.91;8114902;27;20144;-73
2021/06/30 01:23:08;;;;;;;4.70;2.22;;;;;;;17.05;54.05;100626.41;8033712;28;20134;-72
2021/06/30 01:27:13;;;;;;;2.88;1.98;;;;;;;16.98;54.14;100620.03;8119112;27;20549;-73
2021/06/30 01:31:15;;;;;;;3.83;2.30;;;;;;;16.93;54.21;100604.56;8082073;27;20624;-72
2021/06/30 01:35:25;;;;;;;5.05;2.40;;;;;;;16.94;54.35;100608.06;8073194;27;21212;-73
2021/06/30 01:39:26;;;;;;;3.63;2.17;;;;;;;16.88;53.98;100603.31;8033891;28;20647;-72
2021/06/30 01:43:28;;;;;;;6.00;2.95;;;;;;;16.83;54.19;100602.91;8075459;28;20618;-72
2021/06/30 01:47:29;;;;;;;8.07;2.50;;;;;;;16.80;54.15;100595.25;8043622;28;20619;-72
2021/06/30 01:51:31;;;;;;;5.28;2.72;;;;;;;16.75;54.14;100595.69;8062450;27;20608;-73
2021/06/30 01:55:35;;;;;;;3.63;2.65;;;;;;;16.73;54.38;100610.09;8078226;27;20629;-72
2021/06/30 01:59:37;;;;;;;4.45;2.90;;;;;;;16.72;54.43;100600.47;8111156;27;20959;-72
2021/06/30 02:03:38;;;;;;;4.30;2.80;;;;;;;16.72;54.80;100595.16;8079995;27;20614;-72
2021/06/30 02:07:44;;;;;;;5.47;2.67;;;;;;;16.66;54.73;100593.91;8080459;27;20623;-73
2021/06/30 02:11:45;;;;;;;4.60;2.70;;;;;;;16.73;54.94;100596.84;8046683;28;21553;-72
2021/06/30 02:15:47;;;;;;;6.45;2.55;;;;;;;16.71;54.79;100583.72;8083391;27;20625;-72
2021/06/30 02:19:49;;;;;;;5.07;2.33;;;;;;;16.74;54.94;100588.72;8050623;28;20629;-73
2021/06/30 02:23:51;;;;;;;6.88;1.67;;;;;;;16.72;54.85;100585.38;8085384;28;20605;-72
2021/06/30 02:27:54;;;;;;;5.40;1.80;;;;;;;16.74;55.04;100590.56;8098070;27;20611;-73
2021/06/30 02:31:56;;;;;;;3.80;1.48;;;;;;;16.75;54.93;100597.50;8050428;28;20616;-72
2021/06/30 02:35:57;;;;;;;4.82;1.60;;;;;;;16.74;55.08;100591.38;8114697;27;20614;-72
2021/06/30 02:39:59;;;;;;;2.67;1.70;;;;;;;16.74;55.10;100591.38;8046415;28;20633;-72
2021/06/30 02:44:01;;;;;;;1.88;1.27;;;;;;;16.72;55.15;100580.09;8051086;28;20612;-73
2021/06/30 02:48:03;;;;;;;2.00;1.35;;;;;;;16.71;55.20;100580.22;8082792;28;20641;-72
2021/06/30 02:52:04;;;;;;;4.38;1.48;;;;;;;16.65;55.03;100573.72;8076099;27;20611;-72
2021/06/30 02:56:06;;;;;;;1.90;1.25;;;;;;;16.68;55.64;100583.16;8115480;27;20636;-72
2021/06/30 03:00:11;;;;;;;2.60;1.55;;;;;;;16.69;55.46;100579.53;8050873;28;21203;-73
2021/06/30 03:04:13;;;;;;;3.72;1.50;;;;;;;16.68;55.25;100589.31;8033936;28;20627;-73
2021/06/30 03:08:15;;;;;;;2.10;1.70;;;;;;;16.67;55.39;100592.94;8081005;27;20615;-73
2021/06/30 03:12:16;;;;;;;4.70;1.60;;;;;;;16.67;55.14;100590.28;8114822;27;20618;-73
2021/06/30 03:16:17;;;;;;;4.95;1.60;;;;;;;16.67;55.56;100592.09;8050368;28;20629;-73
2021/06/30 03:20:19;;;;;;;1.75;1.20;;;;;;;16.66;55.56;100598.41;8109851;27;20606;-73
2021/06/30 03:24:20;;;;;;;3.53;1.00;;;;;;;16.66;55.58;100587.81;8050430;28;20618;-73
2021/06/30 03:28:22;;;;;;;3.95;1.25;;;;;;;16.66;55.53;100587.81;8016824;28;20620;-73
2021/06/30 03:32:23;;;;;;;1.90;1.00;;;;;;;16.66;55.54;100590.47;8033691;28;20627;-73
2021/06/30 03:36:24;;;;;;;0.80;0.80;;;;;;;16.64;55.74;100594.09;8082778;27;20625;-72
2021/06/30 03:40:26;;;;;;;1.85;1.08;;;;;;;16.60;55.64;100592.72;8081843;27;20640;-72
2021/06/30 03:44:27;;;;;;;1.15;0.82;;;;;;;16.62;55.81;100601.34;8114715;27;20623;-73
2021/06/30 03:48:29;;;;;;;4.13;1.30;;;;;;;16.62;55.76;100606.63;8048993;28;21220;-72
2021/06/30 03:52:30;;;;;;;2.78;1.42;;;;;;;16.62;55.71;100604.00;8050296;28;20611;-73
2021/06/30 03:56:31;;;;;;;7.35;1.20;;;;;;;16.57;55.79;100598.31;8049258;28;20625;-72
2021/06/30 04:00:33;;;;;;;1.92;1.00;;;;;;;16.59;55.79;100606.94;8049012;28;20618;-72
2021/06/30 04:04:34;;;;;;;2.30;1.00;;;;;;;16.59;55.63;100611.41;8033158;28;20624;-73
2021/06/30 04:08:36;;;;;;;5.95;1.23;;;;;;;16.58;55.67;100615.03;8043173;28;20996;-73
2021/06/30 04:12:37;;;;;;;9.57;0.98;;;;;;;16.56;55.84;100612.53;8037456;28;20625;-73
2021/06/30 04:16:38;;;;;;;2.40;1.05;;;;;;;16.56;56.04;100607.25;8044895;28;21464;-72
2021/06/30 04:20:42;;;;;;;4.30;0.93;;;;;;;16.55;55.63;100616.16;8040199;28;20621;-73
2021/06/30 04:24:43;;;;;;;2.10;1.13;;;;;;;16.55;55.70;100620.63;8033754;28;20627;-72
2021/06/30 04:28:44;;;;;;;1.00;0.90;;;;;;;16.55;55.79;100612.69;8047584;28;21012;-73
2021/06/30 04:32:46;;;;;;;2.45;0.90;;;;;;;16.51;56.00;100606.00;8040362;28;20631;-73
2021/06/30 04:36:49;;;;;;;3.08;1.00;;;;;;;16.54;55.89;100605.69;8082035;27;20621;-72
2021/06/30 04:40:50;;;;;;;1.73;0.75;;;;;;;16.51;55.93;100600.69;8033756;28;20620;-73
2021/06/30 04:44:51;;;;;;;0.70;0.70;;;;;;;16.55;55.97;100607.38;8084377;27;21290;-72
2021/06/30 04:48:53;;;;;;;2.75;0.77;;;;;;;16.56;55.86;100609.06;8117892;27;20631;-73
2021/06/30 04:52:54;;;;;;;2.25;0.93;;;;;;;16.46;56.15;100597.63;8044696;28;21208;-72
2021/06/30 04:56:56;;;;;;;1.77;1.10;;;;;;;16.54;56.19;100609.19;8082610;28;20607;-72
2021/06/30 05:00:57;;;;;;;1.05;0.82;;;;;;;16.53;56.42;100606.69;8033358;28;20620;-72
2021/06/30 05:04:59;;;;;;;0.98;0.90;;;;;;;16.58;56.21;100610.56;8082690;27;20626;-72
2021/06/30 05:09:00;;;;;;;3.38;1.38;;;;;;;16.57;56.27;100605.44;8042100;28;20623;-72
2021/06/30 05:13:01;;;;;;;2.97;0.77;;;;;;;16.62;56.45;100611.09;8034091;28;20647;-72
2021/06/30 05:17:03;;;;;;;3.80;1.30;;;;;;;16.64;56.42;100593.25;8066396;28;20618;-72
2021/06/30 05:21:04;;;;;;;5.30;1.48;;;;;;;16.69;56.51;100600.75;8034317;28;21221;-72
2021/06/30 05:25:06;;;;;;;0.98;0.70;;;;;;;16.71;56.58;100593.47;8040839;28;20628;-72
2021/06/30 05:29:07;;;;;;;1.45;1.10;;;;;;;16.70;56.56;100592.63;8033612;28;20616;-72
2021/06/30 05:33:08;;;;;;;1.83;0.93;;;;;;;16.75;56.67;100603.66;8092916;27;20623;-72
2021/06/30 05:37:10;;;;;;;2.38;1.08;;;;;;;16.76;56.65;100600.03;8074033;27;20615;-71
2021/06/30 05:41:13;;;;;;;1.73;1.35;;;;;;;16.76;56.72;100607.13;8114033;27;20721;-72
2021/06/30 05:45:17;;;;;;;1.40;1.20;;;;;;;16.75;56.56;100608.94;8057609;28;20649;-72
2021/06/30 05:49:19;;;;;;;4.68;1.52;;;;;;;16.75;56.21;100622.22;8042865;28;20634;-72
2021/06/30 05:53:20;;;;;;;1.48;1.13;;;;;;;16.69;56.70;100619.31;8031848;28;20632;-72
2021/06/30 05:57:22;;;;;;;1.20;1.10;;;;;;;16.66;56.74;100632.88;8065613;27;20615;-72
2021/06/30 06:01:23;;;;;;;1.13;1.02;;;;;;;16.56;56.59;100619.66;8033809;28;20982;-72
2021/06/30 06:05:24;;;;;;;1.10;1.00;;;;;;;16.57;56.73;100624.84;8032962;28;20632;-72
2021/06/30 06:09:26;;;;;;;0.93;0.90;;;;;;;16.54;56.81;100630.41;8064854;27;20653;-72
2021/06/30 06:13:27;;;;;;;0.95;0.95;;;;;;;16.49;56.73;100637.16;8024270;27;20629;-72
2021/06/30 06:17:29;;;;;;;1.10;1.00;;;;;;;16.46;56.61;100632.94;8106354;27;20618;-72
2021/06/30 06:21:32;;;;;;;1.10;1.00;;;;;;;16.48;56.75;100627.50;8048563;28;20649;-72
2021/06/30 06:25:33;;;;;;;0.90;0.90;;;;;;;16.47;56.77;100631.97;8092028;27;20659;-72
2021/06/30 06:29:35;;;;;;;1.05;0.80;;;;;;;16.51;56.82;100633.34;8097372;27;20628;-71
2021/06/30 06:33:37;;;;;;;1.70;0.90;;;;;;;16.54;56.86;100633.06;8064025;27;20631;-71
2021/06/30 06:37:39;;;;;;;1.63;1.30;;;;;;;16.59;56.77;100638.75;8105091;27;20713;-72
2021/06/30 06:41:42;;;;;;;0.50;0.50;;;;;;;16.62;56.84;100632.31;8114105;27;20619;-72
2021/06/30 06:45:45;;;;;;;3.88;0.60;;;;;;;16.66;56.99;100643.50;8039137;28;20639;-71
2021/06/30 06:49:46;;;;;;;0.65;0.65;;;;;;;16.59;56.82;100632.63;8033473;28;20627;-72
2021/06/30 06:53:48;;;;;;;1.00;0.50;;;;;;;16.57;56.80;100637.25;8130751;27;21005;-71
2021/06/30 06:57:50;;;;;;;0.57;0.57;;;;;;;16.53;56.90;100641.19;8033970;28;20620;-72
2021/06/30 07:01:52;;;;;;;0.73;0.70;;;;;;;16.55;56.80;100648.00;8071373;27;20634;-71
2021/06/30 07:05:53;;;;;;;0.95;0.90;;;;;;;16.49;56.96;100642.44;8049612;28;20634;-71
2021/06/30 07:09:55;;;;;;;0.98;0.82;;;;;;;16.54;57.36;100650.78;8031990;28;20639;-71
2021/06/30 07:13:56;;;;;;;0.60;0.60;;;;;;;16.55;56.61;100648.00;8031858;28;20624;-71
2021/06/30 07:17:58;;;;;;;0.60;0.60;;;;;;;16.70;57.08;100660.78;8038781;28;20631;-71
2021/06/30 07:21:59;;;;;;;0.45;0.45;;;;;;;16.86;56.99;100667.16;8115701;27;20619;-71
2021/06/30 07:26:01;;;;;;;0.88;0.60;;;;;;;16.96;57.23;100675.06;8051403;28;20658;-71
2021/06/30 07:30:04;;;;;;;1.05;0.63;;;;;;;17.02;56.85;100674.50;8078808;27;20748;-71
2021/06/30 07:34:06;;;;;;;0.60;0.60;;;;;;;17.00;56.87;100681.75;8041754;28;20635;-72
2021/06/30 07:38:09;;;;;;;0.98;0.50;;;;;;;16.98;56.96;100691.69;8110333;27;20637;-72
2021/06/30 07:42:11;;;;;;;0.60;0.52;;;;;;;16.96;56.81;100688.34;8145335;27;20631;-71
2021/06/30 07:46:12;;;;;;;0.75;0.55;;;;;;;16.99;56.80;100693.34;8040527;27;21000;-72
2021/06/30 07:50:16;;;;;;;0.60;0.60;;;;;;;17.03;56.88;100687.59;8091239;27;20637;-72
2021/06/30 07:54:18;;;;;;;0.70;0.70;;;;;;;17.13;56.73;100684.91;8072689;27;20624;-72
2021/06/30 07:58:20;;;;;;;0.95;0.50;;;;;;;17.18;56.80;100682.63;8094355;27;20613;-72
2021/06/30 08:02:23;;;;;;;0.70;0.70;;;;;;;17.23;56.59;100693.66;8079898;27;20617;-72
2021/06/30 08:06:25;;;;;;;1.23;0.60;;;;;;;17.26;56.64;100679.25;8093693;27;20620;-72
2021/06/30 08:10:27;;;;;;;0.70;0.70;;;;;;;17.28;56.21;100694.03;8031572;28;21160;-71
2021/06/30 08:14:29;;;;;;;0.52;0.52;;;;;;;17.28;56.63;100691.38;8064116;27;20622;-72
2021/06/30 08:18:31;;;;;;;0.57;0.57;;;;;;;17.31;56.54;100682.28;8064075;27;20614;-72
2021/06/30 08:22:33;;;;;;;0.73;0.60;;;;;;;17.29;56.63;100677.13;8032241;28;21043;-71
2021/06/30 08:26:34;;;;;;;0.50;0.50;;;;;;;17.36;56.57;100675.53;8086195;27;20634;-72
2021/06/30 08:30:36;;;;;;;0.98;0.40;;;;;;;17.37;56.40;100671.88;8058185;28;20607;-71
2021/06/30 08:34:37;;;;;;;0.40;0.40;;;;;;;17.41;56.34;100678.56;8031415;28;20620;-72
2021/06/30 08:38:38;;;;;;;0.40;0.40;;;;;;;17.72;56.16;100676.44;8031445;28;20624;-72
2021/06/30 08:42:42;;;;;;;0.30;0.30;;;;;;;18.35;55.81;100671.78;8031590;28;21036;-71
2021/06/30 08:46:44;;;;;;;0.55;0.47;;;;;;;18.50;55.68;100674.72;8043701;28;20633;-72
2021/06/30 08:50:47;;;;;;;0.80;0.60;;;;;;;18.40;55.70;100682.75;8107795;27;20612;-72
2021/06/30 08:54:50;;;;;;;0.90;0.90;;;;;;;18.24;55.64;100679.16;8128067;27;20627;-72
2021/06/30 08:58:52;;;;;;;0.68;0.60;;;;;;;18.22;55.97;100678.50;8031242;28;20623;-72
2021/06/30 09:02:59;;;;;;;3.92;0.65;;;;;;;18.19;55.77;100681.47;8074895;27;20613;-72
2021/06/30 09:07:03;;;;;;;0.50;0.50;;;;;;;18.09;56.00;100689.53;8042585;28;20623;-72
2021/06/30 09:11:19;;;;;;;0.80;0.80;;;;;;;18.00;55.72;100687.78;8095866;27;20606;-72
2021/06/30 09:15:30;;;;;;;0.73;0.70;;;;;;;17.93;55.94;100692.91;8031732;28;20620;-72
2021/06/30 09:19:53;;;;;;;1.15;0.80;;;;;;;17.83;55.84;100693.94;8063320;27;20619;-72
2021/06/30 09:24:05;;;;;;;0.80;0.80;;;;;;;17.83;56.32;100692.13;8095804;27;20639;-72
2021/06/30 09:28:24;;;;;;;2.45;0.95;;;;;;;17.83;55.96;100691.28;8095479;27;20550;-72
2021/06/30 09:32:26;;;;;;;1.10;1.00;;;;;;;17.84;56.14;100692.97;8082218;28;20614;-72
2021/06/30 09:36:32;;;;;;;1.55;0.95;;;;;;;17.89;55.78;100702.16;8096923;27;20628;-72
2021/06/30 09:40:43;;;;;;;0.95;0.70;;;;;;;17.91;55.99;100696.69;8072334;27;21205;-72
2021/06/30 09:44:45;;;;;;;0.90;0.90;;;;;;;18.12;56.06;100710.47;8031493;28;20616;-72
2021/06/30 09:48:55;;;;;;;1.55;1.10;;;;;;;18.20;55.63;100707.03;8063297;27;20619;-72
2021/06/30 09:52:56;;;;;;;2.55;1.33;;;;;;;18.22;55.54;100716.56;8065973;27;20668;-72
2021/06/30 09:57:00;;;;;;;4.85;2.55;;;;;;;18.26;55.34;100722.41;8097876;27;20632;-72
2021/06/30 10:01:19;;;;;;;3.55;2.15;;;;;;;18.23;55.54;100728.03;8031711;28;20667;-72
2021/06/30 10:05:31;;;;;;;3.13;2.50;;;;;;;18.19;55.21;100724.00;8031679;28;20620;-72
2021/06/30 10:09:34;;;;;;;2.55;1.92;;;;;;;18.11;55.37;100710.66;8095630;27;20597;-72
2021/06/30 10:13:37;;;;;;;3.10;2.05;;;;;;;18.12;55.13;100729.09;8095427;27;20552;-72
2021/06/30 10:17:40;;;;;;;2.25;1.73;;;;;;;18.08;54.93;100727.72;8100119;27;20572;-72
2021/06/30 10:21:43;;;;;;;4.88;3.58;;;;;;;18.07;55.17;100728.72;8092876;27;20554;-72
2021/06/30 10:25:46;;;;;;;4.57;3.25;;;;;;;18.11;54.96;100731.91;8113800;27;20545;-72
2021/06/30 10:29:55;;;;;;;5.43;2.35;;;;;;;18.04;55.19;100730.84;8120295;27;20554;-72
2021/06/30 10:34:01;;;;;;;2.35;1.70;;;;;;;18.07;55.15;100734.03;8031610;28;20625;-72
2021/06/30 10:38:02;;;;;;;1.95;1.70;;;;;;;18.11;54.76;100737.25;8095538;27;21251;-72
2021/06/30 10:42:37;;;;;;;2.65;1.80;;;;;;;18.09;54.93;100734.72;8031489;28;20619;-71
2021/06/30 10:46:40;;;;;;;3.47;1.85;;;;;;;18.25;55.10;100734.84;8095563;27;21472;-72
2021/06/30 10:50:55;;;;;;;2.35;1.58;;;;;;;18.39;54.85;100736.97;8095621;27;21460;-72
2021/06/30 10:54:56;;;;;;;2.13;1.63;;;;;;;18.45;54.78;100736.38;8063620;27;20611;-72
2021/06/30 10:59:02;;;;;;;2.25;2.00;;;;;;;18.48;54.38;100735.19;8063584;27;21434;-72
2021/06/30 11:03:25;;;;;;;2.53;2.05;;;;;;;18.38;54.36;100729.13;8080804;27;21086;-71
2021/06/30 11:07:33;;;;;;;2.00;1.80;;;;;;;18.46;54.64;100737.19;8074369;27;20614;-72
2021/06/30 11:11:35;;;;;;;1.20;1.10;;;;;;;18.51;54.40;100737.56;8031247;28;20627;-72
2021/06/30 11:15:40;;;;;;;2.20;1.00;;;;;;;18.55;54.20;100746.91;8026014;28;20648;-72
2021/06/30 11:19:41;;;;;;;2.97;1.90;;;;;;;18.52;54.33;100749.06;8063187;27;20619;-72
2021/06/30 11:23:44;;;;;;;2.67;1.90;;;;;;;18.45;53.94;100746.16;8031575;28;20624;-72
2021/06/30 11:27:47;;;;;;;2.05;1.10;;;;;;;18.36;54.36;100742.56;8073152;27;20613;-72
2021/06/30 11:31:49;;;;;;;0.90;0.90;;;;;;;18.34;54.39;100752.53;8040677;28;20626;-72
2021/06/30 11:35:50;;;;;;;0.90;0.90;;;;;;;18.27;54.42;100742.69;8031385;28;20631;-71
2021/06/30 11:39:55;;;;;;;2.28;1.08;;;;;;;18.27;54.16;100740.03;8031360;28;20608;-72
2021/06/30 11:43:56;;;;;;;1.10;1.00;;;;;;;18.26;54.43;100736.53;8031364;28;20631;-72
2021/06/30 11:48:05;;;;;;;5.25;1.08;;;;;;;18.24;54.35;100746.47;8031679;28;20620;-72
2021/06/30 11:52:07;;;;;;;1.17;1.00;;;;;;;18.21;53.79;100746.78;8039549;28;20626;-72
2021/06/30 11:56:11;;;;;;;1.10;1.00;;;;;;;18.18;53.93;100751.56;8063607;27;20611;-71
2021/06/30 12:00:13;;;;;;;1.00;0.90;;;;;;;18.10;54.13;100751.50;8031343;28;20616;-71
2021/06/30 12:04:22;;;;;;;1.10;0.90;;;;;;;18.13;54.50;100760.00;8195585;27;20719;-71
2021/06/30 12:08:24;;;;;;;4.68;1.48;;;;;;;18.17;54.14;100753.41;8033778;28;20631;-71
2021/06/30 12:12:30;;;;;;;1.30;1.20;;;;;;;18.23;54.17;100762.59;8031820;28;20624;-71
2021/06/30 12:16:48;;;;;;;1.20;1.10;;;;;;;18.24;53.80;100750.94;8031521;28;20712;-71
2021/06/30 12:20:50;;;;;;;1.20;1.10;;;;;;;18.20;53.63;100770.84;8041113;28;20630;-72
2021/06/30 12:24:57;;;;;;;1.20;1.10;;;;;;;18.14;53.81;100769.66;8072741;27;20617;-71
2021/06/30 12:28:59;;;;;;;1.58;0.90;;;;;;;18.09;53.81;100773.75;8031473;28;20624;-71
2021/06/30 12:33:12;;;;;;;1.60;1.00;;;;;;;18.05;53.63;100777.72;8031795;28;20623;-71
2021/06/30 12:37:21;;;;;;;1.75;1.20;;;;;;;;;;8095315;27;20533;-71
2021/06/30 12:41:24;;;;;;;2.03;1.23;;;;;;;17.91;53.53;100777.25;8031741;28;20620;-72
2021/06/30 12:45:41;;;;;;;1.35;1.25;;;;;;;17.88;53.78;100776.72;8095826;27;20621;-71
2021/06/30 12:50:14;;;;;;;2.67;1.33;;;;;;;17.83;53.64;100763.88;8031525;28;20616;-71
2021/06/30 12:54:17;;;;;;;1.45;1.35;;;;;;;17.87;53.53;100769.72;8031294;28;20631;-72
2021/06/30 12:58:19;;;;;;;1.42;1.33;;;;;;;17.90;53.43;100782.72;8095930;27;20624;-72
2021/06/30 13:02:21;;;;;;;2.42;1.70;;;;;;;17.91;53.59;100787.03;8095963;27;20613;-72
2021/06/30 13:06:28;;;;;;;2.70;2.00;;;;;;;17.91;53.40;100781.72;8110328;27;21203;-72
2021/06/30 13:10:30;;;;;;;2.40;2.13;;;;;;;17.88;53.66;100777.56;8031178;28;20627;-71
2021/06/30 13:14:37;;;;;;;2.47;1.90;;;;;;;17.91;53.49;100792.34;8031732;28;20621;-71
2021/06/30 13:18:48;;;;;;;2.13;1.92;;;;;;;17.86;53.33;100779.50;8063470;27;20626;-71
2021/06/30 13:22:49;;;;;;;4.40;2.40;;;;;;;17.86;53.50;100776.84;8063854;27;21276;-71
2021/06/30 13:35:48;;;;;;;1.88;1.50;;;;;;;17.76;53.64;100791.19;8031600;28;20620;-71
2021/06/30 13:39:50;;;;;;;2.20;1.83;;;;;;;17.68;53.82;100799.06;8031080;28;20623;-72
2021/06/30 13:43:53;;;;;;;2.72;2.15;;;;;;;17.67;54.09;100811.50;8071114;27;21236;-72
2021/06/30 13:47:55;;;;;;;4.55;2.28;;;;;;;17.69;53.97;100809.56;8098695;27;21215;-71
2021/06/30 13:51:56;;;;;;;2.08;1.75;;;;;;;17.71;53.97;100791.66;8031027;28;20659;-72
2021/06/30 13:56:01;;;;;;;2.00;1.77;;;;;;;17.76;54.09;100809.78;8095984;27;20602;-72
2021/06/30 14:00:06;;;;;;;2.95;2.03;;;;;;;17.80;54.32;100795.22;8065102;28;20629;-72
2021/06/30 14:04:21;;;;;;;4.38;2.58;;;;;;;17.76;53.87;100791.19;8161665;27;21053;-72
2021/06/30 14:08:22;;;;;;;2.33;1.98;;;;;;;17.79;54.13;100796.19;8030780;28;20620;-72
2021/06/30 14:12:23;;;;;;;1.83;1.55;;;;;;;17.82;54.19;100786.09;8031714;28;20620;-72
2021/06/30 14:16:25;;;;;;;2.20;1.67;;;;;;;18.02;54.35;100799.28;8031209;28;20650;-72
2021/06/30 14:20:26;;;;;;;2.10;1.90;;;;;;;18.12;53.98;100795.53;8041251;28;20629;-72
2021/06/30 14:24:27;;;;;;;2.38;1.67;;;;;;;18.17;53.95;100805.72;8103796;27;21197;-72
2021/06/30 14:28:32;;;;;;;3.67;1.80;;;;;;;18.16;54.06;100807.56;8063714;27;20626;-72
2021/06/30 14:32:34;;;;;;;3.17;2.78;;;;;;;18.13;53.69;100799.03;8031530;28;20650;-72
2021/06/30 14:36:36;;;;;;;2.95;2.50;;;;;;;18.02;53.76;100793.97;8031541;28;21036;-72
2021/06/30 14:40:38;;;;;;;2.90;2.20;;;;;;;17.97;53.93;100800.56;8095608;27;20628;-72
2021/06/30 14:44:41;;;;;;;1.90;1.58;;;;;;;18.02;53.78;100808.91;8063124;27;20627;-72
2021/06/30 14:48:42;;;;;;;1.60;1.33;;;;;;;18.12;53.92;100810.66;8095540;27;20621;-72
2021/06/30 14:52:45;;;;;;;1.58;1.42;;;;;;;18.14;53.81;100804.22;8031858;28;20989;-72
2021/06/30 14:56:47;;;;;;;1.40;1.30;;;;;;;18.24;53.74;100809.44;8095962;27;20632;-72
2021/06/30 15:00:53;;;;;;;1.45;1.20;;;;;;;18.26;53.89;100807.47;8031281;28;24426;-72
2021/06/30 15:04:54;;;;;;;2.90;1.63;;;;;;;18.34;53.57;100808.38;8063774;27;20619;-72
2021/06/30 15:08:56;;;;;;;2.15;1.75;;;;;;;18.35;53.52;100810.06;8030957;28;21559;-72
2021/06/30 15:12:57;;;;;;;1.50;1.40;;;;;;;18.29;53.71;100802.69;8079042;27;20617;-72
2021/06/30 15:16:58;;;;;;;3.22;1.48;;;;;;;18.22;53.57;100791.00;8128434;27;20620;-72
2021/06/30 15:21:00;;;;;;;2.17;1.50;;;;;;;18.37;53.78;100809.91;8095445;27;20629;-72
2021/06/30 15:25:03;;;;;;;1.63;1.50;;;;;;;18.29;53.35;100813.31;8096138;27;20632;-72
2021/06/30 15:29:06;;;;;;;1.90;1.70;;;;;;;18.19;53.28;100809.91;8124153;27;20623;-72
2021/06/30 15:33:07;;;;;;;2.17;1.65;;;;;;;18.09;53.47;100811.81;8095986;27;20625;-72
2021/06/30 15:37:09;;;;;;;1.75;1.63;;;;;;;18.06;53.55;100814.78;8031559;28;21270;-72
2021/06/30 15:41:10;;;;;;;4.43;1.95;;;;;;;18.02;53.30;100806.25;8031465;28;20651;-72
2021/06/30 15:45:13;;;;;;;1.83;1.40;;;;;;;18.06;53.65;100805.97;8095360;27;20624;-72
2021/06/30 15:49:17;;;;;;;4.25;1.40;;;;;;;18.13;53.55;100801.69;8037159;28;20623;-72
2021/06/30 15:53:19;;;;;;;2.65;1.60;;;;;;;18.20;53.59;100803.59;8031676;28;20635;-72
2021/06/30 15:57:30;;;;;;;2.45;1.85;;;;;;;18.18;53.65;100804.75;8095945;27;20610;-72
2021/06/30 16:01:32;;;;;;;2.47;2.10;;;;;;;18.18;53.66;100805.59;8031250;28;20627;-71
2021/06/30 16:05:34;;;;;;;2.00;1.80;;;;;;;18.17;53.78;100806.56;8031305;28;20948;-72
2021/06/30 16:09:36;;;;;;;2.13;1.70;;;;;;;18.15;53.62;100799.75;8095359;27;20143;-72
2021/06/30 16:13:43;;;;;;;2.20;1.90;;;;;;;18.23;54.28;100791.84;8095915;27;20596;-72
2021/06/30 16:17:46;;;;;;;4.97;2.00;;;;;;;18.17;53.57;100793.28;8109965;27;20565;-72
2021/06/30 16:21:49;;;;;;;5.10;2.05;;;;;;;18.22;53.64;100798.97;8110334;27;20550;-72
2021/06/30 16:25:53;;;;;;;3.90;1.77;;;;;;;18.24;53.73;100798.81;8123702;27;20556;-72
2021/06/30 16:29:55;;;;;;;2.10;1.90;;;;;;;18.23;53.77;100787.34;8095555;27;21065;-72
2021/06/30 16:33:58;;;;;;;5.70;2.40;;;;;;;18.20;53.30;100802.75;8128930;27;20200;-72
2021/06/30 16:38:00;;;;;;;2.65;2.03;;;;;;;18.13;53.68;100807.84;8031097;28;20130;-72
2021/06/30 16:42:01;;;;;;;2.50;1.92;;;;;;;17.99;53.33;100814.53;8031205;28;20612;-72
2021/06/30 16:46:03;;;;;;;2.50;1.67;;;;;;;17.87;53.82;100818.38;8031574;28;21158;-72
2021/06/30 16:50:06;;;;;;;2.58;1.55;;;;;;;17.76;53.72;100805.31;8095783;27;20994;-72
2021/06/30 16:54:08;;;;;;;1.60;1.30;;;;;;;17.79;53.88;100814.81;8031542;28;20616;-72
2021/06/30 16:58:10;;;;;;;1.55;1.35;;;;;;;17.74;53.89;100817.06;8031073;28;20620;-72
2021/06/30 17:02:12;;;;;;;7.57;1.73;;;;;;;17.70;53.92;100819.19;8031959;28;20658;-72
2021/06/30 17:06:13;;;;;;;1.95;1.40;;;;;;;17.67;54.33;100816.81;8095907;27;20625;-72
2021/06/30 17:10:15;;;;;;;1.27;1.17;;;;;;;17.57;54.28;100805.38;8031281;28;20617;-72
2021/06/30 17:14:17;;;;;;;1.38;1.27;;;;;;;17.63;54.38;100822.56;8031537;28;21439;-72
2021/06/30 17:18:19;;;;;;;1.98;1.52;;;;;;;17.56;54.08;100830.28;8030940;28;20627;-71
2021/06/30 17:22:20;;;;;;;2.35;1.50;;;;;;;17.54;54.43;100822.47;8031517;28;20636;-72
2021/06/30 17:26:22;;;;;;;1.58;1.40;;;;;;;17.52;54.62;100836.88;8096030;27;20617;-71
2021/06/30 17:30:24;;;;;;;1.60;1.50;;;;;;;17.43;54.38;100835.94;8031617;28;20620;-71
2021/06/30 17:34:26;;;;;;;2.10;1.48;;;;;;;17.37;54.20;100831.19;8033580;28;20628;-71
2021/06/30 17:38:29;;;;;;;1.67;1.38;;;;;;;17.33;54.80;100832.47;8095614;27;20617;-71
2021/06/30 17:42:30;;;;;;;1.60;1.40;;;;;;;17.31;54.68;100847.72;8031720;28;20631;-71
2021/06/30 17:46:34;;;;;;;2.03;1.60;;;;;;;17.29;54.56;100852.34;8096100;27;20610;-71
2021/06/30 17:50:36;;;;;;;1.73;1.10;;;;;;;17.25;54.60;100848.31;8065489;27;20615;-71
2021/06/30 17:54:40;;;;;;;1.70;1.27;;;;;;;17.18;54.68;100841.91;8065040;28;20607;-72
2021/06/30 17:58:41;;;;;;;1.30;1.20;;;;;;;17.15;54.63;100852.81;8063640;27;20618;-72
2021/06/30 18:02:43;;;;;;;2.20;1.42;;;;;;;17.17;54.63;100856.16;8031602;28;20616;-72
2021/06/30 18:06:44;;;;;;;1.80;1.52;;;;;;;17.16;55.03;100861.59;8031389;28;20613;-72
2021/06/30 18:10:45;;;;;;;2.53;1.58;;;;;;;17.12;54.43;100866.34;8063149;27;20653;-72
2021/06/30 18:14:47;;;;;;;2.35;1.95;;;;;;;17.07;55.21;100865.97;8063546;27;20625;-72
2021/06/30 18:18:48;;;;;;;3.20;1.80;;;;;;;17.03;54.69;100869.91;8064297;28;21408;-71
2021/06/30 18:22:49;;;;;;;3.08;2.00;;;;;;;16.98;54.80;100870.31;8112426;27;20624;-72
2021/06/30 18:26:51;;;;;;;2.15;1.80;;;;;;;16.93;54.79;100872.56;8079975;28;20613;-72
2021/06/30 18:30:52;;;;;;;4.10;2.22;;;;;;;16.87;54.77;100880.19;8079490;27;20656;-71
2021/06/30 18:34:54;;;;;;;2.25;1.77;;;;;;;16.76;55.09;100877.69;8022920;28;20627;-72
2021/06/30 18:38:55;;;;;;;2.90;1.67;;;;;;;16.71;55.33;100894.03;8030875;28;20646;-71
2021/06/30 18:42:56;;;;;;;1.60;1.33;;;;;;;16.66;55.12;100893.63;8020739;28;20624;-72
2021/06/30 18:46:58;;;;;;;4.82;1.40;;;;;;;16.64;54.99;100901.72;8030937;28;21012;-72
2021/06/30 18:51:03;;;;;;;2.28;1.60;;;;;;;16.60;55.02;100902.16;8083452;27;21264;-72
2021/06/30 18:55:05;;;;;;;2.20;1.48;;;;;;;16.54;55.08;100906.19;8079913;27;20652;-72
2021/06/30 18:59:07;;;;;;;8.15;1.80;;;;;;;16.52;55.35;100910.81;8047628;28;20616;-72
2021/06/30 19:03:08;;;;;;;2.35;1.80;;;;;;;16.49;55.00;100911.06;8047480;28;20639;-72